sensor_id;sensor_type;location;lat;lon;timestamp;P1;durP1;ratioP1;P2;durP2;ratioP2
4873;SDS011;2451;49.970;9.068;2022-09-09T00:00:51;4.60;;;2.20;;
4873;SDS011;2451;49.970;9.068;2022-09-09T00:03:31;5.88;;;2.15;;
4873;SDS011;2451;49.970;9.068;2022-09-09T00:09:28;5.28;;;2.25;;
4873;SDS011;2451;49.970;9.068;2022-09-09T00:15:24;5.40;;;2.28;;
4873;SDS011;2451;49.970;9.068;2022-09-09T00:18:01;4.60;;;2.20;;
4873;SDS011;2451;49.970;9.068;2022-09-09T00:20:57;5.55;;;2.17;;
4873;SDS011;2451;49.970;9.068;2022-09-09T00:23:45;5.70;;;2.60;;
4873;SDS011;2451;49.970;9.068;2022-09-09T00:29:03;5.82;;;2.60;;
4873;SDS011;2451;49.970;9.068;2022-09-09T00:31:46;7.43;;;2.60;;
4873;SDS011;2451;49.970;9.068;2022-09-09T00:34:13;4.63;;;2.60;;
4873;SDS011;2451;49.970;9.068;2022-09-09T00:36:48;6.40;;;2.50;;
4873;SDS011;2451;49.970;9.068;2022-09-09T00:39:39;4.70;;;2.40;;
4873;SDS011;2451;49.970;9.068;2022-09-09T00:50:03;5.78;;;2.40;;
4873;SDS011;2451;49.970;9.068;2022-09-09T00:53:08;5.03;;;2.45;;
4873;SDS011;2451;49.970;9.068;2022-09-09T00:58:23;7.65;;;2.63;;
4873;SDS011;2451;49.970;9.068;2022-09-09T01:00:50;6.07;;;2.40;;
4873;SDS011;2451;49.970;9.068;2022-09-09T01:17:15;4.40;;;2.28;;
4873;SDS011;2451;49.970;9.068;2022-09-09T01:25:08;4.33;;;2.60;;
4873;SDS011;2451;49.970;9.068;2022-09-09T01:27:50;5.80;;;2.38;;
4873;SDS011;2451;49.970;9.068;2022-09-09T01:30:18;6.70;;;2.55;;
4873;SDS011;2451;49.970;9.068;2022-09-09T01:32:46;4.60;;;2.15;;
4873;SDS011;2451;49.970;9.068;2022-09-09T01:35:21;4.28;;;2.13;;
4873;SDS011;2451;49.970;9.068;2022-09-09T01:37:55;6.07;;;2.28;;
4873;SDS011;2451;49.970;9.068;2022-09-09T01:40:21;7.07;;;2.25;;
4873;SDS011;2451;49.970;9.068;2022-09-09T01:42:48;6.93;;;2.42;;
4873;SDS011;2451;49.970;9.068;2022-09-09T01:45:13;7.97;;;2.40;;
4873;SDS011;2451;49.970;9.068;2022-09-09T01:47:39;4.68;;;2.15;;
4873;SDS011;2451;49.970;9.068;2022-09-09T01:50:06;5.40;;;2.30;;
4873;SDS011;2451;49.970;9.068;2022-09-09T01:52:36;5.95;;;2.38;;
4873;SDS011;2451;49.970;9.068;2022-09-09T01:55:02;5.95;;;2.67;;
4873;SDS011;2451;49.970;9.068;2022-09-09T02:02:33;6.63;;;2.33;;
4873;SDS011;2451;49.970;9.068;2022-09-09T02:08:08;6.47;;;2.23;;
4873;SDS011;2451;49.970;9.068;2022-09-09T02:10:53;4.63;;;2.33;;
4873;SDS011;2451;49.970;9.068;2022-09-09T02:13:40;6.30;;;2.33;;
4873;SDS011;2451;49.970;9.068;2022-09-09T02:16:21;4.30;;;2.33;;
4873;SDS011;2451;49.970;9.068;2022-09-09T02:19:15;7.88;;;2.80;;
4873;SDS011;2451;49.970;9.068;2022-09-09T02:21:48;4.65;;;2.35;;
4873;SDS011;2451;49.970;9.068;2022-09-09T02:24:15;10.65;;;2.55;;
4873;SDS011;2451;49.970;9.068;2022-09-09T02:26:41;6.15;;;2.55;;
4873;SDS011;2451;49.970;9.068;2022-09-09T02:29:19;5.30;;;2.20;;
4873;SDS011;2451;49.970;9.068;2022-09-09T02:31:53;6.85;;;2.58;;
4873;SDS011;2451;49.970;9.068;2022-09-09T02:34:23;8.45;;;2.55;;
4873;SDS011;2451;49.970;9.068;2022-09-09T02:36:49;6.88;;;2.50;;
4873;SDS011;2451;49.970;9.068;2022-09-09T02:39:18;7.35;;;2.90;;
4873;SDS011;2451;49.970;9.068;2022-09-09T02:41:44;4.93;;;2.63;;
4873;SDS011;2451;49.970;9.068;2022-09-09T02:44:10;5.47;;;2.75;;
4873;SDS011;2451;49.970;9.068;2022-09-09T02:52:08;5.95;;;2.80;;
4873;SDS011;2451;49.970;9.068;2022-09-09T02:54:41;4.25;;;2.22;;
4873;SDS011;2451;49.970;9.068;2022-09-09T02:57:19;6.35;;;2.50;;
4873;SDS011;2451;49.970;9.068;2022-09-09T02:59:52;7.18;;;2.70;;
4873;SDS011;2451;49.970;9.068;2022-09-09T03:02:18;6.22;;;2.30;;
4873;SDS011;2451;49.970;9.068;2022-09-09T03:04:44;6.97;;;2.50;;
4873;SDS011;2451;49.970;9.068;2022-09-09T03:07:15;6.85;;;2.38;;
4873;SDS011;2451;49.970;9.068;2022-09-09T03:09:42;6.53;;;2.55;;
4873;SDS011;2451;49.970;9.068;2022-09-09T03:12:07;6.60;;;2.60;;
4873;SDS011;2451;49.970;9.068;2022-09-09T03:14:35;7.32;;;2.50;;
4873;SDS011;2451;49.970;9.068;2022-09-09T03:17:00;5.68;;;2.25;;
4873;SDS011;2451;49.970;9.068;2022-09-09T03:19:27;4.88;;;2.33;;
4873;SDS011;2451;49.970;9.068;2022-09-09T03:21:53;5.93;;;2.47;;
4873;SDS011;2451;49.970;9.068;2022-09-09T03:24:19;6.25;;;2.50;;
4873;SDS011;2451;49.970;9.068;2022-09-09T03:26:45;8.35;;;2.53;;
4873;SDS011;2451;49.970;9.068;2022-09-09T03:29:11;6.15;;;2.50;;
4873;SDS011;2451;49.970;9.068;2022-09-09T03:31:37;7.45;;;2.70;;
4873;SDS011;2451;49.970;9.068;2022-09-09T03:34:04;6.93;;;2.90;;
4873;SDS011;2451;49.970;9.068;2022-09-09T03:36:30;5.57;;;2.80;;
4873;SDS011;2451;49.970;9.068;2022-09-09T03:38:56;8.15;;;2.97;;
4873;SDS011;2451;49.970;9.068;2022-09-09T03:41:22;5.18;;;2.67;;
4873;SDS011;2451;49.970;9.068;2022-09-09T03:43:52;5.10;;;2.38;;
4873;SDS011;2451;49.970;9.068;2022-09-09T03:46:19;5.60;;;2.85;;
4873;SDS011;2451;49.970;9.068;2022-09-09T03:48:45;6.35;;;2.83;;
4873;SDS011;2451;49.970;9.068;2022-09-09T03:51:11;5.30;;;2.53;;
4873;SDS011;2451;49.970;9.068;2022-09-09T03:53:37;7.40;;;2.55;;
4873;SDS011;2451;49.970;9.068;2022-09-09T03:56:03;5.57;;;2.58;;
4873;SDS011;2451;49.970;9.068;2022-09-09T03:58:31;6.23;;;2.70;;
4873;SDS011;2451;49.970;9.068;2022-09-09T04:01:19;7.28;;;2.58;;
4873;SDS011;2451;49.970;9.068;2022-09-09T04:03:45;6.78;;;2.70;;
4873;SDS011;2451;49.970;9.068;2022-09-09T04:06:11;6.75;;;3.08;;
4873;SDS011;2451;49.970;9.068;2022-09-09T04:08:39;4.45;;;2.70;;
4873;SDS011;2451;49.970;9.068;2022-09-09T04:11:05;6.60;;;3.22;;
4873;SDS011;2451;49.970;9.068;2022-09-09T04:13:31;6.20;;;2.90;;
4873;SDS011;2451;49.970;9.068;2022-09-09T04:15:59;7.68;;;3.05;;
4873;SDS011;2451;49.970;9.068;2022-09-09T04:18:26;6.57;;;3.20;;
4873;SDS011;2451;49.970;9.068;2022-09-09T04:20:55;7.60;;;2.85;;
4873;SDS011;2451;49.970;9.068;2022-09-09T04:23:22;6.55;;;2.90;;
4873;SDS011;2451;49.970;9.068;2022-09-09T04:25:51;6.07;;;3.20;;
4873;SDS011;2451;49.970;9.068;2022-09-09T04:28:18;7.93;;;3.20;;
4873;SDS011;2451;49.970;9.068;2022-09-09T04:30:46;5.28;;;2.67;;
4873;SDS011;2451;49.970;9.068;2022-09-09T04:33:12;6.72;;;2.92;;
4873;SDS011;2451;49.970;9.068;2022-09-09T04:35:39;7.05;;;2.58;;
4873;SDS011;2451;49.970;9.068;2022-09-09T04:38:09;6.03;;;2.45;;
4873;SDS011;2451;49.970;9.068;2022-09-09T04:40:34;8.88;;;2.70;;
4873;SDS011;2451;49.970;9.068;2022-09-09T04:43:01;6.07;;;2.40;;
4873;SDS011;2451;49.970;9.068;2022-09-09T04:45:29;7.15;;;2.45;;
4873;SDS011;2451;49.970;9.068;2022-09-09T04:47:55;5.13;;;1.90;;
4873;SDS011;2451;49.970;9.068;2022-09-09T04:50:21;7.03;;;2.20;;
4873;SDS011;2451;49.970;9.068;2022-09-09T04:52:47;4.45;;;2.28;;
4873;SDS011;2451;49.970;9.068;2022-09-09T04:55:13;4.15;;;2.00;;
4873;SDS011;2451;49.970;9.068;2022-09-09T04:57:39;6.20;;;2.42;;
4873;SDS011;2451;49.970;9.068;2022-09-09T05:00:05;6.05;;;2.47;;
4873;SDS011;2451;49.970;9.068;2022-09-09T05:02:32;5.20;;;2.30;;
4873;SDS011;2451;49.970;9.068;2022-09-09T05:04:58;5.38;;;2.38;;
4873;SDS011;2451;49.970;9.068;2022-09-09T05:07:24;5.18;;;2.40;;
4873;SDS011;2451;49.970;9.068;2022-09-09T05:09:52;4.63;;;2.45;;
4873;SDS011;2451;49.970;9.068;2022-09-09T05:12:17;7.47;;;2.90;;
4873;SDS011;2451;49.970;9.068;2022-09-09T05:14:43;7.20;;;2.90;;
4873;SDS011;2451;49.970;9.068;2022-09-09T05:17:09;4.63;;;2.33;;
4873;SDS011;2451;49.970;9.068;2022-09-09T05:19:35;4.45;;;2.47;;
4873;SDS011;2451;49.970;9.068;2022-09-09T05:22:01;5.80;;;2.90;;
4873;SDS011;2451;49.970;9.068;2022-09-09T05:24:27;7.90;;;2.70;;
4873;SDS011;2451;49.970;9.068;2022-09-09T05:26:53;6.95;;;2.70;;
4873;SDS011;2451;49.970;9.068;2022-09-09T05:29:18;6.45;;;2.67;;
4873;SDS011;2451;49.970;9.068;2022-09-09T05:31:44;7.32;;;3.00;;
4873;SDS011;2451;49.970;9.068;2022-09-09T05:34:10;5.88;;;2.42;;
4873;SDS011;2451;49.970;9.068;2022-09-09T05:36:36;6.90;;;2.70;;
4873;SDS011;2451;49.970;9.068;2022-09-09T05:39:02;6.72;;;2.53;;
4873;SDS011;2451;49.970;9.068;2022-09-09T05:41:28;7.20;;;2.40;;
4873;SDS011;2451;49.970;9.068;2022-09-09T05:43:54;6.07;;;2.53;;
4873;SDS011;2451;49.970;9.068;2022-09-09T05:46:20;6.68;;;2.65;;
4873;SDS011;2451;49.970;9.068;2022-09-09T05:48:49;10.70;;;2.50;;
4873;SDS011;2451;49.970;9.068;2022-09-09T05:51:17;10.88;;;3.17;;
4873;SDS011;2451;49.970;9.068;2022-09-09T05:53:46;7.68;;;2.95;;
4873;SDS011;2451;49.970;9.068;2022-09-09T05:56:17;5.50;;;2.40;;
4873;SDS011;2451;49.970;9.068;2022-09-09T05:58:44;4.85;;;2.47;;
4873;SDS011;2451;49.970;9.068;2022-09-09T06:01:19;5.63;;;2.55;;
4873;SDS011;2451;49.970;9.068;2022-09-09T06:03:47;9.57;;;2.38;;
4873;SDS011;2451;49.970;9.068;2022-09-09T06:06:15;6.55;;;2.22;;
4873;SDS011;2451;49.970;9.068;2022-09-09T06:08:45;4.65;;;2.10;;
4873;SDS011;2451;49.970;9.068;2022-09-09T06:11:13;4.65;;;2.00;;
4873;SDS011;2451;49.970;9.068;2022-09-09T06:13:38;4.18;;;2.13;;
4873;SDS011;2451;49.970;9.068;2022-09-09T06:16:07;5.30;;;1.67;;
4873;SDS011;2451;49.970;9.068;2022-09-09T06:18:37;7.07;;;2.00;;
4873;SDS011;2451;49.970;9.068;2022-09-09T06:21:04;8.85;;;1.77;;
4873;SDS011;2451;49.970;9.068;2022-09-09T06:23:35;4.97;;;1.77;;
4873;SDS011;2451;49.970;9.068;2022-09-09T06:26:04;5.33;;;1.70;;
4873;SDS011;2451;49.970;9.068;2022-09-09T06:28:34;6.35;;;1.48;;
4873;SDS011;2451;49.970;9.068;2022-09-09T06:31:01;6.72;;;1.80;;
4873;SDS011;2451;49.970;9.068;2022-09-09T06:33:32;4.90;;;1.77;;
4873;SDS011;2451;49.970;9.068;2022-09-09T06:35:59;6.55;;;1.52;;
4873;SDS011;2451;49.970;9.068;2022-09-09T06:38:26;4.78;;;1.30;;
4873;SDS011;2451;49.970;9.068;2022-09-09T06:40:56;4.68;;;1.00;;
4873;SDS011;2451;49.970;9.068;2022-09-09T06:43:23;3.72;;;1.20;;
4873;SDS011;2451;49.970;9.068;2022-09-09T06:45:53;4.47;;;1.20;;
4873;SDS011;2451;49.970;9.068;2022-09-09T06:48:20;5.10;;;1.20;;
4873;SDS011;2451;49.970;9.068;2022-09-09T06:50:46;4.45;;;1.20;;
4873;SDS011;2451;49.970;9.068;2022-09-09T06:53:11;6.57;;;1.20;;
4873;SDS011;2451;49.970;9.068;2022-09-09T06:55:37;4.70;;;1.13;;
4873;SDS011;2451;49.970;9.068;2022-09-09T06:58:08;4.25;;;1.33;;
4873;SDS011;2451;49.970;9.068;2022-09-09T07:00:33;4.90;;;1.40;;
4873;SDS011;2451;49.970;9.068;2022-09-09T07:02:59;7.72;;;1.33;;
4873;SDS011;2451;49.970;9.068;2022-09-09T07:05:24;6.47;;;1.23;;
4873;SDS011;2451;49.970;9.068;2022-09-09T07:07:51;5.22;;;1.10;;
4873;SDS011;2451;49.970;9.068;2022-09-09T07:10:16;3.75;;;1.05;;
4873;SDS011;2451;49.970;9.068;2022-09-09T07:12:43;4.35;;;1.00;;
4873;SDS011;2451;49.970;9.068;2022-09-09T07:15:08;5.45;;;1.27;;
4873;SDS011;2451;49.970;9.068;2022-09-09T07:17:34;4.40;;;1.05;;
4873;SDS011;2451;49.970;9.068;2022-09-09T07:20:00;5.00;;;1.20;;
4873;SDS011;2451;49.970;9.068;2022-09-09T07:22:27;5.03;;;1.30;;
4873;SDS011;2451;49.970;9.068;2022-09-09T07:24:53;9.38;;;1.13;;
4873;SDS011;2451;49.970;9.068;2022-09-09T07:27:19;5.82;;;1.40;;
4873;SDS011;2451;49.970;9.068;2022-09-09T07:29:44;6.43;;;1.20;;
4873;SDS011;2451;49.970;9.068;2022-09-09T07:32:10;4.47;;;1.17;;
4873;SDS011;2451;49.970;9.068;2022-09-09T07:34:36;3.45;;;1.08;;
4873;SDS011;2451;49.970;9.068;2022-09-09T07:37:01;6.55;;;1.25;;
4873;SDS011;2451;49.970;9.068;2022-09-09T07:39:27;8.20;;;1.45;;
4873;SDS011;2451;49.970;9.068;2022-09-09T07:41:53;5.68;;;1.50;;
4873;SDS011;2451;49.970;9.068;2022-09-09T07:44:23;7.13;;;1.67;;
4873;SDS011;2451;49.970;9.068;2022-09-09T07:46:49;7.97;;;1.45;;
4873;SDS011;2451;49.970;9.068;2022-09-09T07:49:15;4.80;;;1.40;;
4873;SDS011;2451;49.970;9.068;2022-09-09T07:51:43;6.75;;;1.35;;
4873;SDS011;2451;49.970;9.068;2022-09-09T07:54:11;4.80;;;1.30;;
4873;SDS011;2451;49.970;9.068;2022-09-09T07:56:39;7.18;;;1.40;;
4873;SDS011;2451;49.970;9.068;2022-09-09T07:59:05;6.22;;;1.55;;
4873;SDS011;2451;49.970;9.068;2022-09-09T08:01:32;5.20;;;1.45;;
4873;SDS011;2451;49.970;9.068;2022-09-09T08:04:06;6.68;;;1.67;;
4873;SDS011;2451;49.970;9.068;2022-09-09T08:06:37;6.07;;;1.70;;
4873;SDS011;2451;49.970;9.068;2022-09-09T08:09:04;4.63;;;1.30;;
4873;SDS011;2451;49.970;9.068;2022-09-09T08:11:31;4.95;;;1.55;;
4873;SDS011;2451;49.970;9.068;2022-09-09T08:13:58;6.05;;;1.40;;
4873;SDS011;2451;49.970;9.068;2022-09-09T08:16:25;8.30;;;1.80;;
4873;SDS011;2451;49.970;9.068;2022-09-09T08:18:52;6.37;;;1.60;;
4873;SDS011;2451;49.970;9.068;2022-09-09T08:21:28;6.22;;;1.83;;
4873;SDS011;2451;49.970;9.068;2022-09-09T08:23:55;6.40;;;1.60;;
4873;SDS011;2451;49.970;9.068;2022-09-09T08:26:23;5.57;;;1.33;;
4873;SDS011;2451;49.970;9.068;2022-09-09T08:28:56;7.75;;;1.30;;
4873;SDS011;2451;49.970;9.068;2022-09-09T08:31:23;7.57;;;1.90;;
4873;SDS011;2451;49.970;9.068;2022-09-09T08:33:50;10.73;;;1.48;;
4873;SDS011;2451;49.970;9.068;2022-09-09T08:36:17;4.47;;;1.30;;
4873;SDS011;2451;49.970;9.068;2022-09-09T08:38:48;6.67;;;1.30;;
4873;SDS011;2451;49.970;9.068;2022-09-09T08:41:20;5.85;;;1.60;;
4873;SDS011;2451;49.970;9.068;2022-09-09T08:46:33;5.55;;;1.30;;
4873;SDS011;2451;49.970;9.068;2022-09-09T08:51:56;6.15;;;1.30;;
4873;SDS011;2451;49.970;9.068;2022-09-09T08:54:23;5.55;;;1.40;;
4873;SDS011;2451;49.970;9.068;2022-09-09T08:56:50;5.05;;;1.40;;
4873;SDS011;2451;49.970;9.068;2022-09-09T08:59:16;6.72;;;1.30;;
4873;SDS011;2451;49.970;9.068;2022-09-09T09:10:10;6.10;;;1.20;;
4873;SDS011;2451;49.970;9.068;2022-09-09T09:12:50;5.78;;;1.20;;
4873;SDS011;2451;49.970;9.068;2022-09-09T09:15:18;5.93;;;1.17;;
4873;SDS011;2451;49.970;9.068;2022-09-09T09:17:49;6.25;;;1.45;;
4873;SDS011;2451;49.970;9.068;2022-09-09T09:20:15;8.07;;;1.77;;
4873;SDS011;2451;49.970;9.068;2022-09-09T09:30:26;4.90;;;1.60;;
4873;SDS011;2451;49.970;9.068;2022-09-09T09:33:05;8.50;;;1.73;;
4873;SDS011;2451;49.970;9.068;2022-09-09T09:35:45;7.00;;;1.60;;
4873;SDS011;2451;49.970;9.068;2022-09-09T09:38:16;4.95;;;1.55;;
4873;SDS011;2451;49.970;9.068;2022-09-09T09:40:53;4.85;;;1.33;;
4873;SDS011;2451;49.970;9.068;2022-09-09T09:43:39;6.20;;;1.48;;
4873;SDS011;2451;49.970;9.068;2022-09-09T09:46:18;6.00;;;1.30;;
4873;SDS011;2451;49.970;9.068;2022-09-09T09:49:01;5.10;;;1.50;;
4873;SDS011;2451;49.970;9.068;2022-09-09T09:51:33;5.82;;;1.38;;
4873;SDS011;2451;49.970;9.068;2022-09-09T09:54:22;4.88;;;1.42;;
4873;SDS011;2451;49.970;9.068;2022-09-09T09:56:54;7.28;;;1.50;;
4873;SDS011;2451;49.970;9.068;2022-09-09T09:59:35;6.50;;;1.30;;
4873;SDS011;2451;49.970;9.068;2022-09-09T10:04:42;6.03;;;1.60;;
4873;SDS011;2451;49.970;9.068;2022-09-09T10:07:26;8.00;;;1.60;;
4873;SDS011;2451;49.970;9.068;2022-09-09T10:09:53;7.18;;;1.60;;
4873;SDS011;2451;49.970;9.068;2022-09-09T10:20:48;7.40;;;1.67;;
4873;SDS011;2451;49.970;9.068;2022-09-09T10:26:40;8.70;;;1.58;;
4873;SDS011;2451;49.970;9.068;2022-09-09T10:32:26;5.32;;;1.30;;
4873;SDS011;2451;49.970;9.068;2022-09-09T10:40:27;4.30;;;0.90;;
4873;SDS011;2451;49.970;9.068;2022-09-09T10:42:56;4.55;;;1.00;;
4873;SDS011;2451;49.970;9.068;2022-09-09T10:45:32;3.92;;;0.88;;
4873;SDS011;2451;49.970;9.068;2022-09-09T10:51:39;5.10;;;1.00;;
4873;SDS011;2451;49.970;9.068;2022-09-09T10:56:32;5.15;;;1.23;;
4873;SDS011;2451;49.970;9.068;2022-09-09T10:59:04;5.28;;;1.20;;
4873;SDS011;2451;49.970;9.068;2022-09-09T11:01:39;6.25;;;1.10;;
4873;SDS011;2451;49.970;9.068;2022-09-09T11:04:21;6.50;;;1.23;;
4873;SDS011;2451;49.970;9.068;2022-09-09T11:06:51;5.45;;;1.23;;
4873;SDS011;2451;49.970;9.068;2022-09-09T11:09:24;10.02;;;1.10;;
4873;SDS011;2451;49.970;9.068;2022-09-09T11:11:54;4.85;;;0.90;;
4873;SDS011;2451;49.970;9.068;2022-09-09T11:14:36;5.13;;;1.05;;
4873;SDS011;2451;49.970;9.068;2022-09-09T11:19:43;5.07;;;1.13;;
4873;SDS011;2451;49.970;9.068;2022-09-09T11:22:27;5.97;;;1.35;;
4873;SDS011;2451;49.970;9.068;2022-09-09T11:30:59;5.28;;;1.40;;
4873;SDS011;2451;49.970;9.068;2022-09-09T11:36:53;6.22;;;1.15;;
4873;SDS011;2451;49.970;9.068;2022-09-09T11:42:26;6.20;;;1.02;;
4873;SDS011;2451;49.970;9.068;2022-09-09T11:44:52;3.03;;;0.85;;
4873;SDS011;2451;49.970;9.068;2022-09-09T11:47:25;2.58;;;0.70;;
4873;SDS011;2451;49.970;9.068;2022-09-09T11:50:09;3.00;;;0.70;;
4873;SDS011;2451;49.970;9.068;2022-09-09T11:53:03;2.17;;;0.47;;
4873;SDS011;2451;49.970;9.068;2022-09-09T11:55:38;3.45;;;0.60;;
4873;SDS011;2451;49.970;9.068;2022-09-09T12:00:37;2.00;;;0.60;;
4873;SDS011;2451;49.970;9.068;2022-09-09T12:05:59;3.00;;;0.60;;
4873;SDS011;2451;49.970;9.068;2022-09-09T12:08:41;2.92;;;0.60;;
4873;SDS011;2451;49.970;9.068;2022-09-09T12:11:10;2.78;;;0.60;;
4873;SDS011;2451;49.970;9.068;2022-09-09T12:13:36;2.88;;;0.70;;
4873;SDS011;2451;49.970;9.068;2022-09-09T12:16:02;3.53;;;1.00;;
4873;SDS011;2451;49.970;9.068;2022-09-09T12:18:37;3.58;;;1.00;;
4873;SDS011;2451;49.970;9.068;2022-09-09T12:24:10;4.63;;;0.80;;
4873;SDS011;2451;49.970;9.068;2022-09-09T12:26:42;2.38;;;0.73;;
4873;SDS011;2451;49.970;9.068;2022-09-09T12:29:18;3.80;;;0.80;;
4873;SDS011;2451;49.970;9.068;2022-09-09T12:32:07;2.40;;;0.77;;
4873;SDS011;2451;49.970;9.068;2022-09-09T12:37:28;5.28;;;0.80;;
4873;SDS011;2451;49.970;9.068;2022-09-09T12:40:01;3.55;;;0.82;;
4873;SDS011;2451;49.970;9.068;2022-09-09T12:42:29;3.47;;;0.90;;
4873;SDS011;2451;49.970;9.068;2022-09-09T12:45:02;4.75;;;1.38;;
4873;SDS011;2451;49.970;9.068;2022-09-09T12:50:15;4.85;;;1.00;;
4873;SDS011;2451;49.970;9.068;2022-09-09T12:52:43;4.63;;;0.98;;
4873;SDS011;2451;49.970;9.068;2022-09-09T12:55:15;4.18;;;1.48;;
4873;SDS011;2451;49.970;9.068;2022-09-09T12:57:50;4.47;;;1.05;;
4873;SDS011;2451;49.970;9.068;2022-09-09T13:00:18;2.80;;;1.02;;
4873;SDS011;2451;49.970;9.068;2022-09-09T13:02:48;3.92;;;1.00;;
4873;SDS011;2451;49.970;9.068;2022-09-09T13:05:20;3.17;;;0.93;;
4873;SDS011;2451;49.970;9.068;2022-09-09T13:07:48;6.65;;;1.02;;
4873;SDS011;2451;49.970;9.068;2022-09-09T13:10:15;3.65;;;0.90;;
4873;SDS011;2451;49.970;9.068;2022-09-09T13:12:49;5.03;;;1.30;;
4873;SDS011;2451;49.970;9.068;2022-09-09T13:15:24;4.28;;;1.00;;
4873;SDS011;2451;49.970;9.068;2022-09-09T13:17:54;3.35;;;0.90;;
4873;SDS011;2451;49.970;9.068;2022-09-09T13:20:25;2.83;;;0.93;;
4873;SDS011;2451;49.970;9.068;2022-09-09T13:22:53;5.43;;;0.95;;
4873;SDS011;2451;49.970;9.068;2022-09-09T13:25:25;3.43;;;0.90;;
4873;SDS011;2451;49.970;9.068;2022-09-09T13:27:53;4.43;;;0.93;;
4873;SDS011;2451;49.970;9.068;2022-09-09T13:30:25;3.80;;;1.17;;
4873;SDS011;2451;49.970;9.068;2022-09-09T13:33:39;4.18;;;1.10;;
4873;SDS011;2451;49.970;9.068;2022-09-09T13:35:51;3.58;;;0.82;;
4873;SDS011;2451;49.970;9.068;2022-09-09T13:38:22;8.75;;;1.08;;
4873;SDS011;2451;49.970;9.068;2022-09-09T13:40:59;3.75;;;0.80;;
4873;SDS011;2451;49.970;9.068;2022-09-09T13:48:56;2.80;;;0.80;;
4873;SDS011;2451;49.970;9.068;2022-09-09T13:51:33;3.92;;;0.80;;
4873;SDS011;2451;49.970;9.068;2022-09-09T13:54:06;2.20;;;0.80;;
4873;SDS011;2451;49.970;9.068;2022-09-09T13:56:34;3.45;;;1.00;;
4873;SDS011;2451;49.970;9.068;2022-09-09T13:59:02;3.88;;;0.88;;
4873;SDS011;2451;49.970;9.068;2022-09-09T14:01:28;2.28;;;0.75;;
4873;SDS011;2451;49.970;9.068;2022-09-09T14:03:54;4.22;;;1.13;;
4873;SDS011;2451;49.970;9.068;2022-09-09T14:06:21;4.22;;;0.90;;
4873;SDS011;2451;49.970;9.068;2022-09-09T14:08:48;3.38;;;0.82;;
4873;SDS011;2451;49.970;9.068;2022-09-09T14:11:15;3.42;;;1.02;;
4873;SDS011;2451;49.970;9.068;2022-09-09T14:13:41;3.95;;;0.88;;
4873;SDS011;2451;49.970;9.068;2022-09-09T14:16:06;4.88;;;0.80;;
4873;SDS011;2451;49.970;9.068;2022-09-09T14:18:32;3.83;;;1.08;;
4873;SDS011;2451;49.970;9.068;2022-09-09T14:20:58;4.25;;;0.88;;
4873;SDS011;2451;49.970;9.068;2022-09-09T14:23:24;3.30;;;1.00;;
4873;SDS011;2451;49.970;9.068;2022-09-09T14:25:50;4.15;;;1.10;;
4873;SDS011;2451;49.970;9.068;2022-09-09T14:28:16;4.53;;;0.93;;
4873;SDS011;2451;49.970;9.068;2022-09-09T14:30:43;4.00;;;1.08;;
4873;SDS011;2451;49.970;9.068;2022-09-09T14:33:10;4.38;;;1.13;;
4873;SDS011;2451;49.970;9.068;2022-09-09T14:35:37;3.45;;;0.90;;
4873;SDS011;2451;49.970;9.068;2022-09-09T14:38:03;4.50;;;0.77;;
4873;SDS011;2451;49.970;9.068;2022-09-09T14:40:29;3.45;;;1.00;;
4873;SDS011;2451;49.970;9.068;2022-09-09T14:42:55;4.00;;;0.98;;
4873;SDS011;2451;49.970;9.068;2022-09-09T14:45:22;2.75;;;0.85;;
4873;SDS011;2451;49.970;9.068;2022-09-09T14:47:49;2.38;;;0.80;;
4873;SDS011;2451;49.970;9.068;2022-09-09T14:50:15;2.20;;;0.70;;
4873;SDS011;2451;49.970;9.068;2022-09-09T14:52:41;2.17;;;0.75;;
4873;SDS011;2451;49.970;9.068;2022-09-09T14:55:07;5.28;;;0.95;;
4873;SDS011;2451;49.970;9.068;2022-09-09T14:57:33;3.42;;;0.60;;
4873;SDS011;2451;49.970;9.068;2022-09-09T15:00:00;1.60;;;0.60;;
4873;SDS011;2451;49.970;9.068;2022-09-09T15:02:27;2.17;;;0.65;;
4873;SDS011;2451;49.970;9.068;2022-09-09T15:04:54;4.53;;;0.70;;
4873;SDS011;2451;49.970;9.068;2022-09-09T15:07:22;2.35;;;0.52;;
4873;SDS011;2451;49.970;9.068;2022-09-09T15:09:48;1.75;;;0.50;;
4873;SDS011;2451;49.970;9.068;2022-09-09T15:12:14;1.77;;;0.70;;
4873;SDS011;2451;49.970;9.068;2022-09-09T15:14:40;1.60;;;0.63;;
4873;SDS011;2451;49.970;9.068;2022-09-09T15:17:06;1.45;;;0.60;;
4873;SDS011;2451;49.970;9.068;2022-09-09T15:19:31;2.95;;;0.60;;
4873;SDS011;2451;49.970;9.068;2022-09-09T15:21:57;2.63;;;0.65;;
4873;SDS011;2451;49.970;9.068;2022-09-09T15:24:24;3.92;;;0.73;;
4873;SDS011;2451;49.970;9.068;2022-09-09T15:26:51;3.03;;;0.65;;
4873;SDS011;2451;49.970;9.068;2022-09-09T15:29:17;5.15;;;0.88;;
4873;SDS011;2451;49.970;9.068;2022-09-09T15:31:43;2.70;;;0.70;;
4873;SDS011;2451;49.970;9.068;2022-09-09T15:34:09;3.63;;;0.93;;
4873;SDS011;2451;49.970;9.068;2022-09-09T15:36:35;2.47;;;0.90;;
4873;SDS011;2451;49.970;9.068;2022-09-09T15:39:02;2.83;;;0.88;;
4873;SDS011;2451;49.970;9.068;2022-09-09T15:41:29;3.65;;;0.80;;
4873;SDS011;2451;49.970;9.068;2022-09-09T15:43:56;5.45;;;0.93;;
4873;SDS011;2451;49.970;9.068;2022-09-09T15:46:24;2.97;;;1.00;;
4873;SDS011;2451;49.970;9.068;2022-09-09T15:48:50;1.70;;;0.67;;
4873;SDS011;2451;49.970;9.068;2022-09-09T15:51:16;3.42;;;0.88;;
4873;SDS011;2451;49.970;9.068;2022-09-09T15:53:43;3.72;;;1.10;;
4873;SDS011;2451;49.970;9.068;2022-09-09T15:56:10;4.97;;;0.93;;
4873;SDS011;2451;49.970;9.068;2022-09-09T15:58:36;3.47;;;0.90;;
4873;SDS011;2451;49.970;9.068;2022-09-09T16:01:05;4.22;;;0.80;;
4873;SDS011;2451;49.970;9.068;2022-09-09T16:03:35;5.72;;;1.10;;
4873;SDS011;2451;49.970;9.068;2022-09-09T16:06:05;4.13;;;1.10;;
4873;SDS011;2451;49.970;9.068;2022-09-09T16:08:31;5.25;;;0.95;;
4873;SDS011;2451;49.970;9.068;2022-09-09T16:11:04;6.43;;;1.25;;
4873;SDS011;2451;49.970;9.068;2022-09-09T16:13:38;3.45;;;1.13;;
4873;SDS011;2451;49.970;9.068;2022-09-09T16:16:04;3.97;;;1.00;;
4873;SDS011;2451;49.970;9.068;2022-09-09T16:18:35;3.00;;;0.90;;
4873;SDS011;2451;49.970;9.068;2022-09-09T16:21:00;2.60;;;0.82;;
4873;SDS011;2451;49.970;9.068;2022-09-09T16:23:26;3.42;;;1.20;;
4873;SDS011;2451;49.970;9.068;2022-09-09T16:25:55;4.03;;;1.73;;
4873;SDS011;2451;49.970;9.068;2022-09-09T16:28:21;4.40;;;1.10;;
4873;SDS011;2451;49.970;9.068;2022-09-09T16:30:47;5.25;;;1.48;;
4873;SDS011;2451;49.970;9.068;2022-09-09T16:33:13;5.85;;;1.75;;
4873;SDS011;2451;49.970;9.068;2022-09-09T16:35:42;3.22;;;1.30;;
4873;SDS011;2451;49.970;9.068;2022-09-09T16:38:07;2.90;;;1.15;;
4873;SDS011;2451;49.970;9.068;2022-09-09T16:40:35;3.97;;;0.90;;
4873;SDS011;2451;49.970;9.068;2022-09-09T16:43:04;4.30;;;0.88;;
4873;SDS011;2451;49.970;9.068;2022-09-09T16:45:30;3.28;;;0.80;;
4873;SDS011;2451;49.970;9.068;2022-09-09T16:47:57;1.73;;;0.50;;
4873;SDS011;2451;49.970;9.068;2022-09-09T16:50:23;4.57;;;1.10;;
4873;SDS011;2451;49.970;9.068;2022-09-09T16:52:48;3.60;;;0.90;;
4873;SDS011;2451;49.970;9.068;2022-09-09T16:55:15;1.77;;;0.70;;
4873;SDS011;2451;49.970;9.068;2022-09-09T16:57:41;2.78;;;0.77;;
4873;SDS011;2451;49.970;9.068;2022-09-09T17:00:07;2.78;;;0.82;;
4873;SDS011;2451;49.970;9.068;2022-09-09T17:02:33;2.28;;;0.50;;
4873;SDS011;2451;49.970;9.068;2022-09-09T17:04:58;5.00;;;0.95;;
4873;SDS011;2451;49.970;9.068;2022-09-09T17:07:24;4.70;;;0.90;;
4873;SDS011;2451;49.970;9.068;2022-09-09T17:09:50;3.55;;;0.70;;
4873;SDS011;2451;49.970;9.068;2022-09-09T17:12:16;2.65;;;0.80;;
4873;SDS011;2451;49.970;9.068;2022-09-09T17:14:42;2.65;;;0.88;;
4873;SDS011;2451;49.970;9.068;2022-09-09T17:17:08;1.67;;;0.60;;
4873;SDS011;2451;49.970;9.068;2022-09-09T17:19:33;1.42;;;0.68;;
4873;SDS011;2451;49.970;9.068;2022-09-09T17:21:59;1.92;;;0.70;;
4873;SDS011;2451;49.970;9.068;2022-09-09T17:24:25;4.22;;;0.98;;
4873;SDS011;2451;49.970;9.068;2022-09-09T17:26:52;3.50;;;0.70;;
4873;SDS011;2451;49.970;9.068;2022-09-09T17:29:19;2.50;;;0.73;;
4873;SDS011;2451;49.970;9.068;2022-09-09T17:31:44;2.70;;;0.68;;
4873;SDS011;2451;49.970;9.068;2022-09-09T17:34:10;1.98;;;0.65;;
4873;SDS011;2451;49.970;9.068;2022-09-09T17:36:36;1.05;;;0.60;;
4873;SDS011;2451;49.970;9.068;2022-09-09T17:39:02;4.32;;;0.90;;
4873;SDS011;2451;49.970;9.068;2022-09-09T17:41:38;2.65;;;1.02;;
4873;SDS011;2451;49.970;9.068;2022-09-09T17:44:05;2.30;;;0.75;;
4873;SDS011;2451;49.970;9.068;2022-09-09T17:46:35;2.45;;;0.70;;